Time;durP1;ratioP1;P1;durP2;ratioP2;P2;SDS_P1;SDS_P2;PMS_P1;PMS_P2;Temp;Humidity;BMP_temperature;BMP_pressure;BME280_temperature;BME280_humidity;BME280_pressure;Samples;Min_cycle;Max_cycle;Signal;HPM_P1;HPM_P2
2022/03/24 04:02:38;;;;;;;2.30;2.20;;;10.30;52.20;;;;;;5072151;23;20571;-77
2022/03/24 04:05:06;;;;;;;2.47;2.30;;;10.30;52.30;;;;;;4919867;29;20461;-77
2022/03/24 04:07:33;;;;;;;2.00;1.90;;;10.30;52.80;;;;;;4919559;29;20840;-77
2022/03/24 04:10:00;;;;;;;2.30;2.20;;;10.20;52.40;;;;;;4919715;29;20480;-76
2022/03/24 04:12:26;;;;;;;2.10;2.00;;;10.10;52.70;;;;;;4919681;29;20472;-77
2022/03/24 04:14:53;;;;;;;2.03;1.93;;;10.00;52.80;;;;;;4919698;29;20453;-76
2022/03/24 04:17:20;;;;;;;2.33;2.23;;;9.80;53.10;;;;;;4921014;29;20457;-74
2022/03/24 04:19:48;;;;;;;1.90;1.80;;;9.70;53.30;;;;;;4920388;29;20460;-75
2022/03/24 04:22:14;;;;;;;1.80;1.70;;;9.50;53.60;;;;;;4919524;29;20831;-75
2022/03/24 04:24:41;;;;;;;1.80;1.70;;;9.30;53.90;;;;;;4919285;29;20816;-74
2022/03/24 04:27:08;;;;;;;1.83;1.73;;;9.20;54.20;;;;;;4919213;29;21058;-71
2022/03/24 04:29:34;;;;;;;1.90;1.80;;;9.10;54.50;;;;;;4919366;29;20499;-77
2022/03/24 04:32:01;;;;;;;1.87;1.77;;;9.00;54.50;;;;;;4919281;29;20468;-77
2022/03/24 04:34:27;;;;;;;2.00;1.90;;;8.90;54.60;;;;;;4919419;29;20449;-77
2022/03/24 04:36:55;;;;;;;1.83;1.73;;;8.90;54.70;;;;;;4919270;29;20453;-77
2022/03/24 04:39:22;;;;;;;2.10;2.00;;;8.80;55.00;;;;;;4919299;29;20527;-76
2022/03/24 04:41:49;;;;;;;2.20;2.00;;;8.80;55.30;;;;;;4920038;29;20477;-77
2022/03/24 04:44:15;;;;;;;2.30;2.20;;;8.70;55.50;;;;;;4919050;29;20456;-77
2022/03/24 04:46:43;;;;;;;2.13;2.03;;;8.70;55.90;;;;;;4918970;29;20512;-76
2022/03/24 04:49:09;;;;;;;2.20;2.10;;;8.70;56.20;;;;;;4919124;29;20551;-77
2022/03/24 04:51:36;;;;;;;1.93;1.83;;;8.70;56.10;;;;;;4919003;29;20520;-77
2022/03/24 04:54:05;;;;;;;1.90;1.80;;;8.80;56.10;;;;;;4918629;29;20963;-77
2022/03/24 04:56:31;;;;;;;2.17;2.07;;;8.80;55.90;;;;;;4918842;29;20465;-77
2022/03/24 04:58:58;;;;;;;2.50;2.40;;;8.80;55.60;;;;;;4918993;29;20445;-77
2022/03/24 05:01:24;;;;;;;2.47;2.37;;;8.80;55.70;;;;;;4918439;29;20488;-75
2022/03/24 05:03:51;;;;;;;2.10;2.00;;;8.80;55.50;;;;;;4918885;29;20461;-75
2022/03/24 05:06:18;;;;;;;2.07;1.97;;;8.80;55.50;;;;;;4918804;29;20457;-75
2022/03/24 05:08:45;;;;;;;2.00;1.90;;;8.80;55.70;;;;;;4918601;29;20488;-75
2022/03/24 05:11:13;;;;;;;2.20;2.10;;;8.80;55.70;;;;;;4918593;29;20468;-75
2022/03/24 05:13:39;;;;;;;2.10;2.00;;;8.80;55.60;;;;;;4918511;29;20508;-75
2022/03/24 05:16:06;;;;;;;2.40;2.30;;;8.80;55.70;;;;;;4918461;29;20449;-75
2022/03/24 05:18:33;;;;;;;2.03;1.93;;;8.80;55.90;;;;;;4918181;29;20449;-75
2022/03/24 05:20:59;;;;;;;2.00;1.90;;;8.70;56.00;;;;;;4918415;29;20505;-75
2022/03/24 05:23:26;;;;;;;2.40;2.30;;;8.70;56.10;;;;;;4918392;29;20456;-74
2022/03/24 05:25:53;;;;;;;2.53;2.43;;;8.70;56.20;;;;;;4918456;29;20449;-73
2022/03/24 05:28:21;;;;;;;2.03;1.93;;;8.70;56.30;;;;;;4917936;29;20903;-75
2022/03/24 05:30:48;;;;;;;2.20;2.10;;;8.70;56.10;;;;;;4918048;29;21023;-75
2022/03/24 05:33:15;;;;;;;2.10;2.00;;;8.80;56.20;;;;;;4918244;29;20560;-75
2022/03/24 05:35:42;;;;;;;1.80;1.70;;;8.80;56.20;;;;;;4918128;29;20483;-75
2022/03/24 05:38:09;;;;;;;2.40;2.20;;;8.90;56.10;;;;;;4918103;29;20496;-74
2022/03/24 05:40:36;;;;;;;2.10;1.90;;;9.00;55.80;;;;;;4918151;29;20461;-75
2022/03/24 05:43:03;;;;;;;2.33;2.23;;;9.20;55.50;;;;;;4918330;29;20452;-75
2022/03/24 05:45:30;;;;;;;2.07;1.97;;;9.40;55.40;;;;;;4918970;29;20945;-75
2022/03/24 05:47:57;;;;;;;2.00;1.90;;;9.40;54.60;;;;;;4926194;29;21000;-74
2022/03/24 05:50:24;;;;;;;2.10;2.00;;;9.50;54.50;;;;;;4940631;29;20440;-75
2022/03/24 05:52:51;;;;;;;2.27;2.17;;;9.60;54.60;;;;;;4933253;29;20488;-75
2022/03/24 05:55:18;;;;;;;2.20;2.10;;;10.00;54.20;;;;;;4919566;29;20512;-75
2022/03/24 05:57:45;;;;;;;2.53;2.43;;;10.50;53.30;;;;;;4919184;29;20449;-75
2022/03/24 06:00:14;;;;;;;1.90;1.80;;;11.10;52.50;;;;;;4918780;29;20512;-75
2022/03/24 06:02:43;;;;;;;2.30;2.20;;;11.70;50.40;;;;;;4918269;29;20493;-75
2022/03/24 06:05:11;;;;;;;1.90;1.80;;;12.30;49.40;;;;;;4918280;29;20463;-75
2022/03/24 06:07:38;;;;;;;1.90;1.80;;;12.90;48.30;;;;;;4918146;29;20532;-75
2022/03/24 06:10:05;;;;;;;2.10;2.00;;;13.40;47.60;;;;;;4918253;29;20485;-75
2022/03/24 06:12:32;;;;;;;2.23;2.13;;;14.00;46.40;;;;;;4917624;29;20473;-75
2022/03/24 06:14:59;;;;;;;2.17;2.03;;;14.60;45.10;;;;;;4917990;29;20449;-76
2022/03/24 06:17:26;;;;;;;1.80;1.70;;;15.20;44.40;;;;;;4917712;29;20941;-75
2022/03/24 06:19:55;;;;;;;2.03;1.93;;;15.80;43.10;;;;;;4918239;29;20448;-75
2022/03/24 06:22:22;;;;;;;1.80;1.70;;;16.50;42.10;;;;;;4917960;29;20484;-76
2022/03/24 06:24:49;;;;;;;1.77;1.67;;;17.10;41.40;;;;;;4917895;29;20979;-76
2022/03/24 06:27:17;;;;;;;1.50;1.40;;;17.70;40.50;;;;;;4917587;29;20485;-76
2022/03/24 06:29:44;;;;;;;1.73;1.63;;;18.30;39.70;;;;;;4917972;29;20464;-76
2022/03/24 06:32:10;;;;;;;1.87;1.77;;;18.90;38.80;;;;;;4917841;29;20536;-76
2022/03/24 06:34:37;;;;;;;1.80;1.70;;;19.50;38.20;;;;;;4917978;29;20460;-76
2022/03/24 06:37:06;;;;;;;1.60;1.50;;;20.10;37.50;;;;;;4917667;29;20453;-77
2022/03/24 06:39:32;;;;;;;1.90;1.80;;;20.80;36.90;;;;;;4917694;29;20458;-77
2022/03/24 06:42:00;;;;;;;1.60;1.50;;;21.50;36.30;;;;;;4917657;29;20477;-77
2022/03/24 06:44:27;;;;;;;1.80;1.70;;;22.30;35.60;;;;;;4917626;29;20463;-77
2022/03/24 06:46:53;;;;;;;1.53;1.43;;;22.90;34.80;;;;;;4918097;29;20940;-77
2022/03/24 06:49:20;;;;;;;2.17;2.07;;;23.50;34.00;;;;;;4931169;29;20532;-78
2022/03/24 06:51:47;;;;;;;1.90;1.80;;;24.00;33.60;;;;;;4937808;29;20532;-77
2022/03/24 06:54:15;;;;;;;1.70;1.60;;;24.70;32.90;;;;;;4936687;29;20806;-76
2022/03/24 06:56:42;;;;;;;1.70;1.60;;;25.30;32.20;;;;;;4919173;29;20879;-76
2022/03/24 06:59:08;;;;;;;1.63;1.53;;;25.70;31.70;;;;;;4917407;29;20504;-76
2022/03/24 07:01:35;;;;;;;1.80;1.70;;;26.20;30.90;;;;;;4916817;29;20895;-76
2022/03/24 07:04:02;;;;;;;1.70;1.60;;;26.60;30.40;;;;;;4917261;29;20448;-76
2022/03/24 07:06:28;;;;;;;1.60;1.50;;;27.00;30.10;;;;;;4917093;29;20460;-75
2022/03/24 07:08:55;;;;;;;2.00;1.90;;;27.50;29.90;;;;;;4916679;29;21012;-75
2022/03/24 07:11:23;;;;;;;1.57;1.47;;;28.00;29.20;;;;;;4918157;29;20467;-75
2022/03/24 07:13:50;;;;;;;1.70;1.60;;;28.60;29.00;;;;;;4920747;29;20457;-76
2022/03/24 07:16:17;;;;;;;1.70;1.60;;;29.00;28.10;;;;;;4920363;29;21036;-76
2022/03/24 07:18:44;;;;;;;1.80;1.70;;;28.90;27.80;;;;;;4920541;29;20452;-76
2022/03/24 07:21:11;;;;;;;2.00;1.90;;;28.80;28.30;;;;;;4923244;29;20531;-78
2022/03/24 07:23:37;;;;;;;1.77;1.67;;;28.60;28.40;;;;;;4923164;29;20544;-76
2022/03/24 07:26:05;;;;;;;1.90;1.80;;;27.70;28.90;;;;;;4920725;29;20456;-76
2022/03/24 07:28:33;;;;;;;1.70;1.60;;;26.60;29.90;;;;;;4920453;29;20484;-77
2022/03/24 07:31:09;;;;;;;1.70;1.60;;;25.40;31.60;;;;;;4920485;29;20468;-78
2022/03/24 07:33:36;;;;;;;1.93;1.83;;;24.20;32.80;;;;;;4920896;29;20497;-77
2022/03/24 07:36:02;;;;;;;1.90;1.80;;;23.20;34.50;;;;;;4921320;29;20460;-77
2022/03/24 07:38:29;;;;;;;2.13;2.03;;;22.30;35.30;;;;;;4919969;29;20941;-76
2022/03/24 07:40:56;;;;;;;1.80;1.70;;;21.00;36.70;;;;;;4919949;29;20890;-76
2022/03/24 07:43:22;;;;;;;2.10;2.00;;;20.10;38.30;;;;;;4919893;29;21004;-77
2022/03/24 07:45:51;;;;;;;1.70;1.60;;;19.30;40.30;;;;;;4920228;29;20449;-77
2022/03/24 07:48:20;;;;;;;1.73;1.63;;;18.50;41.70;;;;;;4919904;29;21027;-77
2022/03/24 07:50:48;;;;;;;2.10;2.00;;;17.80;42.40;;;;;;4920034;29;20889;-76
2022/03/24 07:53:24;;;;;;;1.93;1.83;;;16.90;43.40;;;;;;4919596;29;20457;-76
2022/03/24 07:55:51;;;;;;;1.93;1.83;;;16.60;44.90;;;;;;4920074;29;20440;-77
2022/03/24 07:58:18;;;;;;;2.10;2.00;;;16.30;45.50;;;;;;4919930;29;20545;-77
2022/03/24 08:00:45;;;;;;;2.20;2.00;;;16.40;45.60;;;;;;4919679;29;20469;-76
2022/03/24 08:03:15;;;;;;;1.80;1.70;;;16.50;45.30;;;;;;4919934;29;20429;-75
2022/03/24 08:05:43;;;;;;;1.90;1.80;;;16.20;43.80;;;;;;4919415;29;20896;-76
2022/03/24 08:08:10;;;;;;;2.03;1.93;;;16.10;42.80;;;;;;4919563;29;20580;-76
2022/03/24 08:10:37;;;;;;;2.00;1.90;;;16.20;43.30;;;;;;4919697;29;20460;-76
2022/03/24 08:13:04;;;;;;;2.37;2.27;;;16.40;43.60;;;;;;4919809;29;20820;-76
2022/03/24 08:15:31;;;;;;;2.30;2.20;;;16.90;43.10;;;;;;4919796;29;20877;-75
2022/03/24 08:17:58;;;;;;;1.90;1.80;;;17.20;42.40;;;;;;4919839;29;20516;-76
2022/03/24 08:20:26;;;;;;;2.00;1.90;;;17.30;42.30;;;;;;4919720;29;20504;-76
2022/03/24 08:22:53;;;;;;;2.10;2.00;;;17.50;41.40;;;;;;4919049;29;20449;-76
2022/03/24 08:25:20;;;;;;;1.87;1.77;;;17.50;41.80;;;;;;4919712;29;20814;-76
2022/03/24 08:27:47;;;;;;;1.90;1.80;;;17.80;41.50;;;;;;4919445;29;20457;-76
2022/03/24 08:30:14;;;;;;;1.90;1.80;;;17.80;40.50;;;;;;4919604;29;20457;-77
2022/03/24 08:32:40;;;;;;;1.97;1.87;;;17.80;40.30;;;;;;4919590;29;20476;-77
2022/03/24 08:35:08;;;;;;;1.77;1.67;;;17.80;38.70;;;;;;4919260;29;20461;-76
2022/03/24 08:37:37;;;;;;;2.00;1.90;;;17.90;38.60;;;;;;4919436;29;20453;-76
2022/03/24 08:40:05;;;;;;;2.10;2.00;;;18.20;39.70;;;;;;4919330;29;20459;-76
2022/03/24 08:42:32;;;;;;;2.20;2.00;;;18.30;41.40;;;;;;4918941;29;20472;-76
2022/03/24 08:44:59;;;;;;;1.97;1.87;;;18.60;41.20;;;;;;4919429;29;20485;-77
2022/03/24 08:47:26;;;;;;;1.87;1.77;;;18.40;37.20;;;;;;4919191;29;20459;-76
2022/03/24 08:49:53;;;;;;;2.03;1.93;;;18.20;36.20;;;;;;4919563;29;20551;-76
2022/03/24 08:52:21;;;;;;;2.50;2.30;;;18.10;37.00;;;;;;4919610;29;20544;-76
2022/03/24 08:54:49;;;;;;;3.20;2.50;;;17.90;39.90;;;;;;4922727;29;20448;-76
2022/03/24 08:57:16;;;;;;;2.27;2.17;;;17.80;39.60;;;;;;4918933;29;20532;-76
2022/03/24 08:59:43;;;;;;;2.43;2.20;;;17.80;41.80;;;;;;4918905;29;20452;-76
2022/03/24 09:02:10;;;;;;;2.30;2.10;;;17.80;40.60;;;;;;4918921;29;20484;-76
2022/03/24 09:04:37;;;;;;;2.60;2.40;;;17.60;40.90;;;;;;4918668;29;20874;-76
2022/03/24 09:07:04;;;;;;;2.10;2.00;;;17.50;40.40;;;;;;4919189;29;20479;-77
2022/03/24 09:09:30;;;;;;;2.40;2.30;;;17.30;42.10;;;;;;4918764;29;20544;-76
2022/03/24 09:11:58;;;;;;;2.30;2.10;;;17.30;42.60;;;;;;4918672;29;20468;-77
2022/03/24 09:14:25;;;;;;;2.63;2.53;;;17.20;42.90;;;;;;4918694;29;20452;-76
2022/03/24 09:16:52;;;;;;;2.20;2.10;;;17.20;43.30;;;;;;4919203;29;20533;-76
2022/03/24 09:19:18;;;;;;;3.43;2.43;;;17.20;42.00;;;;;;4918246;29;21012;-76
2022/03/24 09:21:45;;;;;;;1.90;1.80;;;17.10;41.70;;;;;;4923022;29;20540;-76
2022/03/24 09:24:12;;;;;;;2.70;2.60;;;16.80;42.40;;;;;;4929414;29;20472;-76
2022/03/24 09:26:38;;;;;;;2.27;2.10;;;16.90;41.30;;;;;;4929619;29;20453;-76
2022/03/24 09:29:06;;;;;;;2.50;2.40;;;16.70;41.20;;;;;;4928710;29;20489;-76
2022/03/24 09:31:35;;;;;;;2.63;2.43;;;16.70;42.00;;;;;;4927570;29;20465;-76
2022/03/24 09:34:02;;;;;;;2.40;2.20;;;16.70;41.90;;;;;;4929347;29;20460;-77
2022/03/24 09:36:29;;;;;;;2.30;2.20;;;16.90;42.20;;;;;;4928160;29;20457;-76
2022/03/24 09:38:56;;;;;;;2.37;2.27;;;17.10;41.20;;;;;;4929118;29;20460;-75
2022/03/24 09:41:27;;;;;;;2.23;2.13;;;17.10;40.90;;;;;;4929883;29;20528;-76
2022/03/24 09:43:54;;;;;;;2.43;2.30;;;17.10;41.20;;;;;;4928051;29;20441;-76
2022/03/24 09:46:23;;;;;;;2.30;2.10;;;17.10;40.90;;;;;;4928455;29;20479;-76
2022/03/24 09:48:50;;;;;;;2.60;2.40;;;17.20;41.00;;;;;;4928234;29;20484;-76
2022/03/24 09:51:17;;;;;;;2.40;2.30;;;17.10;41.30;;;;;;4924607;29;20468;-76
2022/03/24 09:53:43;;;;;;;2.20;2.10;;;17.30;42.10;;;;;;4918124;29;20540;-75
2022/03/24 09:56:10;;;;;;;2.60;2.40;;;17.40;40.80;;;;;;4917966;29;20970;-76
2022/03/24 09:58:37;;;;;;;2.17;2.00;;;17.30;40.70;;;;;;4918985;29;20448;-76
2022/03/24 10:01:04;;;;;;;2.40;2.30;;;17.30;41.10;;;;;;4918235;29;20500;-75
2022/03/24 10:03:32;;;;;;;2.20;2.10;;;17.40;41.80;;;;;;4919968;29;20447;-76
2022/03/24 10:06:02;;;;;;;1.90;1.80;;;17.60;41.10;;;;;;4920050;29;20457;-76
2022/03/24 10:08:30;;;;;;;2.20;2.10;;;17.80;40.80;;;;;;4918379;29;20991;-76
2022/03/24 10:11:01;;;;;;;1.93;1.83;;;18.00;41.20;;;;;;4918808;29;20848;-76
2022/03/24 10:13:44;;;;;;;2.10;2.00;;;17.90;40.10;;;;;;4918554;29;20453;-76
2022/03/24 10:16:13;;;;;;;2.77;2.67;;;17.90;40.60;;;;;;5017276;23;20572;-74
2022/03/24 10:18:56;;;;;;;2.10;2.00;;;17.90;40.70;;;;;;4916897;29;20456;-73
2022/03/24 10:21:23;;;;;;;1.77;1.67;;;18.20;39.50;;;;;;4916844;29;20607;-74
2022/03/24 10:23:50;;;;;;;2.27;2.17;;;18.40;39.70;;;;;;4916782;29;20528;-74
2022/03/24 10:26:17;;;;;;;3.10;2.40;;;18.40;40.00;;;;;;4916741;29;20831;-74
2022/03/24 10:28:57;;;;;;;2.40;2.30;;;18.30;39.90;;;;;;4916625;29;20496;-75
2022/03/24 10:31:33;;;;;;;2.60;2.50;;;18.10;39.60;;;;;;4916670;29;20448;-74
2022/03/24 10:34:02;;;;;;;2.40;2.30;;;18.40;40.70;;;;;;4916375;29;20910;-74
2022/03/24 10:36:29;;;;;;;1.83;1.73;;;18.50;40.80;;;;;;4916473;29;20560;-73
2022/03/24 10:39:04;;;;;;;2.37;2.13;;;18.60;37.10;;;;;;4916554;29;20496;-74
2022/03/24 10:41:32;;;;;;;2.50;2.30;;;18.90;37.00;;;;;;4916560;29;20447;-75
2022/03/24 10:44:04;;;;;;;2.10;2.00;;;18.60;39.80;;;;;;4916916;29;20456;-74
2022/03/24 10:46:33;;;;;;;1.97;1.87;;;18.70;39.70;;;;;;4918200;29;20527;-74
2022/03/24 10:49:16;;;;;;;2.37;2.27;;;18.90;39.00;;;;;;4920253;29;20489;-74
2022/03/24 10:51:45;;;;;;;1.77;1.67;;;19.10;37.80;;;;;;4920114;29;20961;-75
2022/03/24 10:54:22;;;;;;;1.73;1.60;;;19.40;34.30;;;;;;4919891;29;20456;-74
2022/03/24 10:56:56;;;;;;;2.03;1.93;;;19.60;32.80;;;;;;4920323;29;20482;-73
2022/03/24 10:59:26;;;;;;;1.57;1.47;;;19.80;33.20;;;;;;4920229;29;20433;-74
2022/03/24 11:01:54;;;;;;;1.40;1.30;;;19.90;33.00;;;;;;4920202;29;20444;-73
2022/03/24 11:04:23;;;;;;;1.43;1.33;;;20.10;31.40;;;;;;4920802;29;20996;-75
2022/03/24 11:06:51;;;;;;;1.60;1.50;;;20.30;30.30;;;;;;4920045;29;20536;-74
2022/03/24 11:09:23;;;;;;;1.37;1.27;;;20.40;31.30;;;;;;4920098;29;20604;-74
2022/03/24 11:12:25;;;;;;;1.73;1.63;;;20.50;31.10;;;;;;4920030;29;20532;-74
2022/03/24 11:14:54;;;;;;;1.80;1.70;;;20.40;31.40;;;;;;4920022;29;20538;-74
2022/03/24 11:17:23;;;;;;;1.97;1.87;;;20.40;32.20;;;;;;4919491;29;20498;-75
2022/03/24 11:20:04;;;;;;;1.33;1.23;;;20.10;32.30;;;;;;4919935;29;20532;-74
2022/03/24 11:22:41;;;;;;;1.50;1.40;;;20.30;31.50;;;;;;4920002;29;20520;-74
2022/03/24 11:25:09;;;;;;;1.40;1.30;;;20.60;31.40;;;;;;4919909;29;20448;-74
2022/03/24 11:27:35;;;;;;;1.40;1.30;;;20.80;29.90;;;;;;4919762;29;20480;-73
2022/03/24 11:30:04;;;;;;;1.40;1.30;;;20.80;29.60;;;;;;4919632;29;20531;-74
2022/03/24 11:32:34;;;;;;;1.30;1.20;;;20.90;29.40;;;;;;4919772;29;20448;-75
2022/03/24 11:35:02;;;;;;;1.60;1.50;;;21.00;29.80;;;;;;4919405;29;20818;-75
2022/03/24 11:37:30;;;;;;;1.50;1.40;;;20.70;29.80;;;;;;4919687;29;20464;-75
2022/03/24 11:40:05;;;;;;;1.50;1.40;;;20.70;30.00;;;;;;4919508;29;20804;-73
2022/03/24 11:42:34;;;;;;;1.40;1.30;;;20.90;29.90;;;;;;4919617;29;20483;-74
2022/03/24 11:45:07;;;;;;;1.60;1.50;;;21.00;30.30;;;;;;4919489;29;20504;-74
2022/03/24 11:47:51;;;;;;;1.60;1.50;;;20.90;30.80;;;;;;4919490;29;20473;-74
2022/03/24 11:50:40;;;;;;;1.63;1.53;;;21.00;30.00;;;;;;4919117;29;21010;-74
2022/03/24 11:53:12;;;;;;;1.50;1.40;;;20.90;29.50;;;;;;4919431;29;20441;-75
2022/03/24 11:55:38;;;;;;;1.20;1.10;;;21.10;29.20;;;;;;4919041;29;20974;-75
2022/03/24 11:58:06;;;;;;;1.47;1.37;;;21.10;28.70;;;;;;4918294;29;20512;-75
2022/03/24 12:00:42;;;;;;;1.13;1.03;;;21.00;28.70;;;;;;4919010;29;20917;-74
2022/03/24 12:03:46;;;;;;;1.33;1.23;;;21.20;30.50;;;;;;4922898;29;20429;-73
2022/03/24 12:06:16;;;;;;;1.30;1.20;;;21.60;28.70;;;;;;4921890;29;20540;-74
2022/03/24 12:08:48;;;;;;;1.13;1.03;;;22.10;28.20;;;;;;4921345;29;20452;-76
2022/03/24 12:11:42;;;;;;;1.00;0.90;;;22.40;27.00;;;;;;4920774;29;20511;-74
2022/03/24 12:14:11;;;;;;;1.40;1.30;;;22.60;26.20;;;;;;4920120;29;20949;-74
2022/03/24 12:16:39;;;;;;;1.23;1.13;;;22.60;26.10;;;;;;4920080;29;20491;-74
2022/03/24 12:19:08;;;;;;;1.30;1.20;;;22.80;27.30;;;;;;4920225;29;20475;-73
2022/03/24 12:21:36;;;;;;;1.70;1.60;;;23.00;26.60;;;;;;4920999;29;20508;-74
2022/03/24 12:24:08;;;;;;;1.50;1.40;;;23.20;27.00;;;;;;4921180;29;20459;-74
2022/03/24 12:26:39;;;;;;;1.50;1.40;;;23.10;26.70;;;;;;4921141;29;20511;-74
2022/03/24 12:29:19;;;;;;;1.70;1.60;;;22.90;26.70;;;;;;4920703;29;20933;-74
2022/03/24 12:32:00;;;;;;;1.40;1.30;;;23.00;27.60;;;;;;4918459;29;20456;-74
2022/03/24 12:34:44;;;;;;;1.53;1.43;;;23.10;27.00;;;;;;4918520;29;20514;-75
2022/03/24 12:37:39;;;;;;;1.60;1.50;;;22.80;27.00;;;;;;4918491;29;20472;-74
2022/03/24 12:40:13;;;;;;;1.50;1.40;;;22.50;27.40;;;;;;4918608;29;20516;-74
2022/03/24 12:42:41;;;;;;;1.40;1.30;;;22.20;27.30;;;;;;4918581;29;20459;-74
2022/03/24 12:45:10;;;;;;;1.60;1.50;;;22.50;28.20;;;;;;4918554;29;20848;-72
2022/03/24 12:47:38;;;;;;;1.57;1.47;;;22.80;28.50;;;;;;4918461;29;20473;-73
2022/03/24 12:50:09;;;;;;;1.50;1.40;;;22.90;27.50;;;;;;4918251;29;20568;-74
2022/03/24 12:52:52;;;;;;;1.50;1.40;;;23.20;27.40;;;;;;4918311;29;20875;-74
2022/03/24 12:55:24;;;;;;;1.63;1.53;;;22.90;27.20;;;;;;4918087;29;20437;-73
2022/03/24 12:57:58;;;;;;;1.40;1.30;;;23.20;27.90;;;;;;4918227;29;20583;-74
2022/03/24 13:00:26;;;;;;;1.50;1.40;;;23.60;26.70;;;;;;4918164;29;20481;-74
2022/03/24 13:02:53;;;;;;;1.50;1.40;;;23.70;26.60;;;;;;4918157;29;20492;-75
2022/03/24 13:05:24;;;;;;;1.70;1.60;;;23.60;26.90;;;;;;4918365;29;20452;-75
2022/03/24 13:07:53;;;;;;;1.90;1.80;;;23.70;27.10;;;;;;4918059;29;20494;-75
2022/03/24 13:10:22;;;;;;;1.30;1.20;;;23.80;26.60;;;;;;4917444;29;20945;-74
2022/03/24 13:12:50;;;;;;;1.60;1.50;;;23.90;26.90;;;;;;4917966;29;20496;-75
2022/03/24 13:15:21;;;;;;;1.40;1.30;;;23.90;26.50;;;;;;4917911;29;20452;-74
2022/03/24 13:17:50;;;;;;;1.53;1.43;;;23.90;26.30;;;;;;4917448;29;20477;-74
2022/03/24 13:20:17;;;;;;;1.43;1.33;;;24.10;26.90;;;;;;4917455;29;20890;-74
2022/03/24 13:22:47;;;;;;;1.60;1.50;;;24.10;26.40;;;;;;4917915;29;20591;-74
2022/03/24 13:25:16;;;;;;;1.70;1.60;;;24.20;26.20;;;;;;4917782;29;20508;-75
2022/03/24 13:27:45;;;;;;;2.00;1.40;;;23.90;26.40;;;;;;4917619;29;20473;-74
2022/03/24 13:30:14;;;;;;;1.53;1.43;;;24.10;26.70;;;;;;4917639;29;20488;-75
2022/03/24 13:32:42;;;;;;;1.90;1.80;;;24.10;26.40;;;;;;4917706;29;20453;-74
2022/03/24 13:35:13;;;;;;;1.60;1.50;;;23.80;26.40;;;;;;4917652;29;20456;-75
2022/03/24 13:37:41;;;;;;;1.80;1.57;;;23.40;26.20;;;;;;4917511;29;20477;-74
2022/03/24 13:40:11;;;;;;;1.37;1.27;;;22.80;26.80;;;;;;4917549;29;20453;-74
2022/03/24 13:42:40;;;;;;;1.60;1.50;;;23.10;27.80;;;;;;4917479;29;20452;-75
2022/03/24 13:45:11;;;;;;;1.53;1.43;;;23.50;26.40;;;;;;4917371;29;20449;-75
2022/03/24 13:47:41;;;;;;;1.50;1.40;;;23.20;26.90;;;;;;4917217;29;20990;-75
2022/03/24 13:50:09;;;;;;;1.90;1.80;;;22.90;27.20;;;;;;4917394;29;20524;-75
2022/03/24 13:52:42;;;;;;;1.70;1.60;;;23.20;27.10;;;;;;4917111;29;20917;-75
2022/03/24 13:55:15;;;;;;;1.70;1.60;;;23.30;26.80;;;;;;4917343;29;20492;-74
2022/03/24 13:57:52;;;;;;;1.43;1.33;;;23.20;26.80;;;;;;4917158;29;20473;-74
2022/03/24 14:00:27;;;;;;;1.87;1.70;;;23.60;26.90;;;;;;4917161;29;20436;-74
2022/03/24 14:03:07;;;;;;;1.50;1.40;;;24.20;26.80;;;;;;4917022;29;20505;-74
2022/03/24 14:05:55;;;;;;;1.40;1.30;;;24.60;25.90;;;;;;4917099;29;20440;-75
2022/03/24 14:08:33;;;;;;;1.33;1.23;;;25.00;25.70;;;;;;4916983;29;20480;-75
2022/03/24 14:11:06;;;;;;;1.40;1.30;;;24.90;25.90;;;;;;4917046;29;20484;-73
2022/03/24 14:13:36;;;;;;;1.50;1.40;;;25.00;25.40;;;;;;4916976;29;20540;-74
2022/03/24 14:16:13;;;;;;;1.60;1.50;;;25.30;25.30;;;;;;4916696;29;20548;-75
2022/03/24 14:18:40;;;;;;;1.60;1.50;;;25.50;24.60;;;;;;4917075;29;20441;-75
2022/03/24 14:21:15;;;;;;;1.67;1.57;;;25.50;23.70;;;;;;4916011;29;20448;-74
2022/03/24 14:23:42;;;;;;;1.57;1.47;;;25.60;24.90;;;;;;4916642;29;20912;-73
2022/03/24 14:26:10;;;;;;;1.40;1.30;;;26.30;24.50;;;;;;4916796;29;20499;-75
2022/03/24 14:28:40;;;;;;;1.40;1.30;;;27.20;23.90;;;;;;4916515;29;20872;-74
2022/03/24 14:31:27;;;;;;;1.50;1.40;;;28.70;23.10;;;;;;4916744;29;20484;-75
2022/03/24 14:33:57;;;;;;;1.83;1.10;;;30.70;22.00;;;;;;4916844;29;20480;-75
2022/03/24 14:36:24;;;;;;;1.40;1.30;;;32.20;20.70;;;;;;4916624;29;20560;-74
2022/03/24 14:39:19;;;;;;;1.30;1.20;;;33.60;19.70;;;;;;4916707;29;20595;-75
2022/03/24 14:41:48;;;;;;;1.20;1.10;;;34.80;19.40;;;;;;4916777;29;20460;-75
2022/03/24 14:44:18;;;;;;;1.50;1.40;;;35.60;19.10;;;;;;4916706;29;20515;-75
2022/03/24 14:46:45;;;;;;;1.10;1.00;;;36.30;18.60;;;;;;4916685;29;20550;-75
2022/03/24 14:49:13;;;;;;;1.40;1.30;;;36.50;18.70;;;;;;4916706;29;20459;-76
2022/03/24 14:51:42;;;;;;;1.40;1.30;;;36.80;18.00;;;;;;4916654;29;20479;-76
2022/03/24 14:54:10;;;;;;;1.43;1.33;;;36.50;17.90;;;;;;4916580;29;20480;-76
2022/03/24 14:56:37;;;;;;;1.43;1.33;;;36.00;18.10;;;;;;4916397;29;20528;-75
2022/03/24 14:59:05;;;;;;;1.30;1.20;;;35.70;18.20;;;;;;4916113;29;20901;-75
2022/03/24 15:01:34;;;;;;;1.30;1.20;;;36.00;18.50;;;;;;4916594;29;20448;-75
2022/03/24 15:04:02;;;;;;;1.20;1.10;;;36.50;17.80;;;;;;4916534;29;20490;-76
2022/03/24 15:06:29;;;;;;;1.40;1.30;;;36.90;17.40;;;;;;4916434;29;20468;-75
2022/03/24 15:08:55;;;;;;;1.30;1.20;;;36.80;18.10;;;;;;4916395;29;20586;-75
2022/03/24 15:11:22;;;;;;;1.43;1.33;;;36.70;17.80;;;;;;4916356;29;20487;-74
2022/03/24 15:16:35;;;;;;;1.20;1.10;;;36.60;18.00;;;;;;4916017;29;20467;-75
2022/03/24 15:19:02;;;;;;;1.50;1.37;;;36.50;17.60;;;;;;4917180;29;20547;-75
2022/03/24 15:21:29;;;;;;;1.30;1.20;;;36.20;17.90;;;;;;4916423;29;20889;-74
2022/03/24 15:23:56;;;;;;;1.30;1.20;;;35.50;18.10;;;;;;4916351;29;20512;-75
2022/03/24 15:26:24;;;;;;;1.10;1.00;;;35.00;18.30;;;;;;4916348;29;20851;-74
2022/03/24 15:28:51;;;;;;;1.13;1.03;;;34.50;19.00;;;;;;4916420;29;20461;-75
2022/03/24 15:31:18;;;;;;;1.20;1.10;;;33.60;18.90;;;;;;4916349;29;20481;-75
2022/03/24 15:33:46;;;;;;;1.20;1.10;;;32.00;19.60;;;;;;4919800;29;20479;-75
2022/03/24 15:36:14;;;;;;;1.20;1.10;;;30.70;20.10;;;;;;4919473;29;20560;-75
2022/03/24 15:38:41;;;;;;;1.30;1.20;;;29.70;20.40;;;;;;4919458;29;20831;-74
2022/03/24 15:41:09;;;;;;;1.33;1.23;;;28.60;21.10;;;;;;4919722;29;20516;-74
2022/03/24 15:43:36;;;;;;;1.20;1.10;;;27.60;21.60;;;;;;4919736;29;20445;-73
2022/03/24 15:46:03;;;;;;;1.10;1.00;;;27.00;22.00;;;;;;4919616;29;20472;-75
2022/03/24 15:48:30;;;;;;;1.30;1.20;;;26.40;22.80;;;;;;4919569;29;20520;-75
2022/03/24 15:50:58;;;;;;;1.47;1.20;;;25.70;23.40;;;;;;4919472;29;20514;-74
2022/03/24 15:53:25;;;;;;;3.17;1.40;;;25.00;24.00;;;;;;4919724;29;20848;-75
2022/03/24 15:55:51;;;;;;;1.20;1.10;;;24.30;24.70;;;;;;4919414;29;20563;-74
2022/03/24 15:58:20;;;;;;;1.10;1.00;;;23.90;24.80;;;;;;4919472;29;20449;-71
2022/03/24 16:00:46;;;;;;;1.40;1.30;;;23.50;25.30;;;;;;4919196;29;20488;-70
2022/03/24 16:03:14;;;;;;;1.47;1.33;;;23.40;26.90;;;;;;4919755;29;20456;-71
2022/03/24 16:05:41;;;;;;;1.60;1.50;;;23.40;25.80;;;;;;4919268;29;20540;-70
2022/03/24 16:08:09;;;;;;;1.20;1.07;;;23.30;27.00;;;;;;4919250;29;20528;-74
2022/03/24 16:10:37;;;;;;;1.30;1.20;;;23.10;27.30;;;;;;4919323;29;20567;-75
2022/03/24 16:13:03;;;;;;;1.30;1.20;;;23.00;26.20;;;;;;4918785;29;20488;-75
2022/03/24 16:15:30;;;;;;;1.43;1.33;;;22.90;25.50;;;;;;4918709;29;20511;-75
2022/03/24 16:17:57;;;;;;;1.20;1.10;;;22.50;25.30;;;;;;5037998;23;20560;-77
2022/03/24 16:20:24;;;;;;;1.30;1.20;;;22.50;25.20;;;;;;4925348;29;20449;-77
2022/03/24 16:22:50;;;;;;;1.43;1.33;;;22.50;25.60;;;;;;4921768;29;20482;-78
2022/03/24 16:25:18;;;;;;;1.30;1.20;;;22.50;25.20;;;;;;4923284;29;20445;-77
2022/03/24 16:27:45;;;;;;;1.00;0.90;;;22.40;25.70;;;;;;4924134;29;20500;-77
2022/03/24 16:30:12;;;;;;;1.20;1.10;;;22.40;25.60;;;;;;4924733;29;20504;-77
2022/03/24 16:32:39;;;;;;;1.10;1.00;;;22.10;25.70;;;;;;4920422;29;21000;-77
2022/03/24 16:35:09;;;;;;;1.47;1.37;;;22.10;26.10;;;;;;4921142;29;21024;-77
2022/03/24 16:37:36;;;;;;;1.30;1.20;;;22.00;26.40;;;;;;4920415;29;20504;-77
2022/03/24 16:40:03;;;;;;;1.40;1.30;;;21.80;26.30;;;;;;4919975;29;20496;-77
2022/03/24 16:42:32;;;;;;;1.43;1.33;;;21.50;26.70;;;;;;4921078;29;20451;-79
2022/03/24 16:44:59;;;;;;;1.10;1.00;;;21.60;26.60;;;;;;4920468;29;20496;-79
2022/03/24 16:47:26;;;;;;;1.37;1.27;;;21.60;26.70;;;;;;4921531;29;20515;-79
2022/03/24 16:49:52;;;;;;;1.30;1.20;;;21.60;26.70;;;;;;4920301;29;20535;-78
2022/03/24 16:52:20;;;;;;;1.30;1.20;;;21.50;27.20;;;;;;4919851;29;20899;-78
2022/03/24 16:54:47;;;;;;;1.43;1.33;;;21.50;27.20;;;;;;4920274;29;20463;-79
2022/03/24 16:57:14;;;;;;;1.33;1.23;;;21.60;26.90;;;;;;4920797;29;20520;-79
2022/03/24 16:59:42;;;;;;;1.23;1.13;;;21.60;26.60;;;;;;4920708;29;20849;-78
2022/03/24 17:02:09;;;;;;;1.20;1.10;;;21.50;26.80;;;;;;4920480;29;20484;-78